Time;durP1;ratioP1;P1;durP2;ratioP2;P2;SDS_P1;SDS_P2;PMS_P1;PMS_P2;Temp;Humidity;BMP_temperature;BMP_pressure;BME280_temperature;BME280_humidity;BME280_pressure;Samples;Min_cycle;Max_cycle;Signal;HPM_P1;HPM_P2
2021/05/29 00:01:17;;;;;;;5.45;4.92;;;;;;;16.95;95.08;100864.38;1679840;85;20938;-72
2021/05/29 00:03:44;;;;;;;5.87;5.00;;;;;;;16.89;95.38;100861.00;1679451;85;21593;-70
2021/05/29 00:06:11;;;;;;;4.95;4.53;;;;;;;16.83;95.74;100854.52;1679255;85;21713;-71
2021/05/29 00:08:39;;;;;;;6.80;5.20;;;;;;;16.80;95.92;100857.89;1679318;85;21528;-76
2021/05/29 00:11:07;;;;;;;6.30;5.70;;;;;;;16.77;96.31;100856.86;1679128;85;21157;-73
2021/05/29 00:13:35;;;;;;;6.97;5.83;;;;;;;16.72;96.35;100849.89;1679689;85;21073;-78
2021/05/29 00:16:02;;;;;;;6.42;5.37;;;;;;;16.69;96.73;100848.83;1692383;84;22400;-71
2021/05/29 00:18:29;;;;;;;6.78;6.17;;;;;;;16.65;97.04;100844.84;1697140;84;20984;-77
2021/05/29 00:20:57;;;;;;;6.45;5.83;;;;;;;16.62;97.21;100847.73;1696819;84;21677;-78
2021/05/29 00:23:24;;;;;;;6.90;6.05;;;;;;;16.59;97.36;100847.50;1696511;84;21024;-73
2021/05/29 00:25:51;;;;;;;6.97;6.28;;;;;;;16.55;97.61;100851.38;1696973;84;21108;-73
2021/05/29 00:28:19;;;;;;;8.83;6.03;;;;;;;16.52;97.93;100849.00;1697101;84;20882;-73
2021/05/29 00:30:46;;;;;;;6.33;5.72;;;;;;;16.48;98.17;100853.31;1696916;84;21100;-76
2021/05/29 00:33:13;;;;;;;6.90;6.15;;;;;;;16.46;98.41;100850.02;1696959;84;21675;-76
2021/05/29 00:35:42;;;;;;;6.55;5.95;;;;;;;16.42;98.62;100853.38;1697029;84;20988;-74
2021/05/29 00:38:09;;;;;;;7.75;6.10;;;;;;;16.39;98.90;100857.58;1696840;84;21092;-83
2021/05/29 00:40:36;;;;;;;9.15;5.70;;;;;;;16.37;99.17;100855.08;1696758;84;21110;-73
2021/05/29 00:43:04;;;;;;;7.62;6.45;;;;;;;16.36;99.30;100856.53;1696579;84;21040;-71
2021/05/29 00:45:31;;;;;;;7.70;6.15;;;;;;;16.34;99.57;100851.89;1697157;84;21013;-71
2021/05/29 00:48:00;;;;;;;7.05;6.45;;;;;;;16.34;99.80;100859.75;1697695;84;21588;-74
2021/05/29 00:50:28;;;;;;;7.05;6.33;;;;;;;16.32;99.96;100857.75;1699087;84;21059;-76
2021/05/29 00:52:55;;;;;;;7.90;6.60;;;;;;;16.33;100.00;100856.80;1699070;84;21073;-76
2021/05/29 00:55:23;;;;;;;7.80;6.15;;;;;;;16.32;100.00;100857.75;1698321;84;21021;-77
2021/05/29 00:57:52;;;;;;;7.20;6.60;;;;;;;16.31;100.00;100856.09;1697818;84;21048;-73
2021/05/29 01:00:21;;;;;;;8.50;6.60;;;;;;;16.30;100.00;100854.45;1697016;84;20981;-74
2021/05/29 01:02:49;;;;;;;7.35;6.65;;;;;;;16.29;100.00;100856.71;1696874;84;21020;-79
2021/05/29 01:05:18;;;;;;;8.98;6.70;;;;;;;16.28;100.00;100851.95;1697119;84;21635;-73
2021/05/29 01:07:49;;;;;;;6.67;6.08;;;;;;;16.26;100.00;100849.95;1696516;84;21313;-76
2021/05/29 01:10:16;;;;;;;6.78;6.17;;;;;;;16.25;100.00;100854.84;1696883;84;21016;-78
2021/05/29 01:12:43;;;;;;;6.97;6.28;;;;;;;16.24;100.00;100854.48;1696969;84;21032;-74
2021/05/29 01:15:13;;;;;;;7.37;6.67;;;;;;;16.22;100.00;100848.55;1686247;84;21001;-76
2021/05/29 01:17:41;;;;;;;8.28;6.22;;;;;;;16.22;100.00;100846.41;1657470;86;21117;-76
2021/05/29 01:20:09;;;;;;;7.30;6.60;;;;;;;16.21;100.00;100847.39;1657444;86;21164;-79
2021/05/29 01:22:52;;;;;;;7.90;6.03;;;;;;;16.19;100.00;100843.59;1657262;86;21603;-74
2021/05/29 01:25:24;;;;;;;;;;;;;;;16.18;100.00;100837.99;1660064;86;21022;-79
2021/05/29 01:28:11;;;;;;;8.18;6.67;;;;;;;16.17;100.00;100833.73;1657283;86;20271;-73
2021/05/29 01:30:45;;;;;;;7.30;6.03;;;;;;;16.14;100.00;100839.24;1657417;86;21679;-77
2021/05/29 01:33:26;;;;;;;6.85;5.92;;;;;;;16.14;100.00;100834.48;1657537;86;22019;-74
2021/05/29 01:35:59;;;;;;;6.35;5.30;;;;;;;16.14;100.00;100830.55;1656858;86;20993;-78
2021/05/29 01:38:27;;;;;;;6.50;5.75;;;;;;;16.16;100.00;100825.52;1657552;86;21009;-69
2021/05/29 01:41:06;;;;;;;6.90;5.35;;;;;;;16.16;100.00;100825.52;1657415;86;21742;-78
2021/05/29 01:43:37;;;;;;;6.55;5.33;;;;;;;16.19;100.00;100829.66;1656452;86;21151;-76
2021/05/29 01:46:05;;;;;;;6.37;4.92;;;;;;;16.21;100.00;100831.17;1657492;86;21048;-78
2021/05/29 01:48:34;;;;;;;5.00;4.50;;;;;;;16.23;100.00;100833.20;1657482;86;21116;-77
2021/05/29 01:51:02;;;;;;;4.53;4.12;;;;;;;16.25;100.00;100836.50;1657313;86;21020;-75
2021/05/29 01:53:29;;;;;;;4.80;3.80;;;;;;;16.28;100.00;100835.41;1657455;86;21104;-79
2021/05/29 01:55:57;;;;;;;4.62;4.15;;;;;;;16.32;100.00;100831.56;1657460;86;21150;-74
2021/05/29 01:58:24;;;;;;;4.55;4.12;;;;;;;16.35;100.00;100837.84;1657538;86;21064;-76
2021/05/29 02:00:51;;;;;;;4.22;3.80;;;;;;;16.37;100.00;100840.67;1657958;86;21025;-81
2021/05/29 02:03:19;;;;;;;4.33;3.87;;;;;;;16.40;100.00;100836.95;1657255;86;21062;-73
2021/05/29 02:05:47;;;;;;;3.67;3.37;;;;;;;16.41;99.89;100832.90;1657647;86;21032;-77
2021/05/29 02:08:14;;;;;;;4.37;3.35;;;;;;;16.42;99.63;100831.11;1657821;86;21692;-77
2021/05/29 02:10:43;;;;;;;5.60;3.22;;;;;;;16.43;99.21;100836.20;1657485;86;21096;-76
2021/05/29 02:13:29;;;;;;;6.22;3.40;;;;;;;16.41;99.05;100834.21;1657304;86;21021;-78
2021/05/29 02:15:56;;;;;;;5.75;3.37;;;;;;;16.39;98.67;100833.52;1672515;84;21172;-79
2021/05/29 02:18:23;;;;;;;3.45;3.00;;;;;;;16.36;97.98;100838.20;1696425;84;21100;-76
2021/05/29 02:21:02;;;;;;;3.95;3.35;;;;;;;16.33;97.75;100841.92;1696580;84;21850;-78
2021/05/29 02:23:39;;;;;;;4.90;3.60;;;;;;;16.30;97.73;100840.88;1696613;84;21004;-75
2021/05/29 02:26:11;;;;;;;4.30;3.40;;;;;;;16.27;97.48;100846.35;1696944;84;21590;-73
2021/05/29 02:28:37;;;;;;;7.37;3.17;;;;;;;16.25;97.57;100848.77;1697041;84;21060;-77
2021/05/29 02:31:07;;;;;;;3.58;3.12;;;;;;;16.20;97.68;100848.34;1696841;84;21071;-76
2021/05/29 02:33:35;;;;;;;3.20;2.77;;;;;;;16.16;97.88;100844.33;1697013;84;21153;-80
2021/05/29 02:36:03;;;;;;;3.45;3.10;;;;;;;16.15;98.11;100844.80;1696992;84;21006;-81
2021/05/29 02:38:30;;;;;;;3.85;3.12;;;;;;;16.13;98.24;100847.21;1697392;84;21020;-77
2021/05/29 02:40:57;;;;;;;3.70;2.83;;;;;;;16.13;98.46;100847.21;1698046;84;21040;-75
2021/05/29 02:43:25;;;;;;;5.70;3.10;;;;;;;16.13;98.67;100849.83;1698658;84;20937;-74
2021/05/29 02:45:53;;;;;;;6.87;3.75;;;;;;;16.13;98.85;100853.76;1699099;84;21199;-73
2021/05/29 02:48:21;;;;;;;5.15;3.83;;;;;;;16.12;99.10;100850.30;1697050;84;20949;-78
2021/05/29 02:50:48;;;;;;;5.17;3.83;;;;;;;16.11;99.32;100854.37;1697016;84;21039;-71
2021/05/29 02:53:15;;;;;;;5.80;3.55;;;;;;;16.12;99.63;100858.63;1697063;84;21036;-75
2021/05/29 02:55:43;;;;;;;4.25;3.85;;;;;;;16.12;99.81;100858.63;1696740;84;21701;-75
2021/05/29 02:58:11;;;;;;;7.97;3.92;;;;;;;16.13;100.00;100857.69;1696329;84;21116;-75
2021/05/29 03:00:46;;;;;;;6.12;4.00;;;;;;;16.15;100.00;100859.20;1696565;84;21167;-76
2021/05/29 03:03:13;;;;;;;6.78;4.20;;;;;;;16.20;99.94;100864.06;1696663;84;21159;-75
2021/05/29 03:05:43;;;;;;;4.12;3.72;;;;;;;16.24;99.71;100862.33;1696711;84;21736;-73
2021/05/29 03:08:11;;;;;;;4.85;3.90;;;;;;;16.29;99.17;100871.11;1696663;84;21458;-77
2021/05/29 03:10:40;;;;;;;5.72;4.20;;;;;;;16.36;98.64;100876.17;1696306;84;21633;-74
2021/05/29 03:13:09;;;;;;;6.15;5.47;;;;;;;16.38;97.64;100873.77;1696574;84;21132;-75
2021/05/29 03:15:36;;;;;;;5.83;4.95;;;;;;;16.38;96.91;100874.24;1695788;84;21056;-78
2021/05/29 03:18:05;;;;;;;6.97;4.78;;;;;;;16.38;96.81;100876.39;1696684;84;21116;-73
2021/05/29 03:20:32;;;;;;;10.95;5.12;;;;;;;16.40;96.05;100882.31;1696726;84;21702;-72
2021/05/29 03:22:59;;;;;;;8.85;4.22;;;;;;;16.40;95.73;100880.16;1696592;84;22051;-78
2021/05/29 03:25:26;;;;;;;6.60;4.70;;;;;;;16.39;95.29;100879.36;1696919;84;21610;-78
2021/05/29 03:27:54;;;;;;;8.73;4.70;;;;;;;16.39;95.16;100878.05;1696500;84;21081;-75
2021/05/29 03:30:24;;;;;;;6.40;4.65;;;;;;;16.37;94.60;100878.64;1696691;84;21195;-73
2021/05/29 03:32:52;;;;;;;6.35;4.70;;;;;;;16.35;94.36;100878.44;1696771;84;21872;-75
2021/05/29 03:35:19;;;;;;;5.53;4.58;;;;;;;16.31;94.31;100876.56;1696655;84;21743;-80
2021/05/29 03:37:46;;;;;;;6.03;4.83;;;;;;;16.31;94.41;100875.73;1696377;84;21016;-78
2021/05/29 03:40:15;;;;;;;6.37;4.45;;;;;;;16.30;94.25;100875.40;1696691;84;20996;-78
2021/05/29 03:42:44;;;;;;;8.20;4.70;;;;;;;16.28;94.13;100873.38;1696883;84;21036;-79
2021/05/29 03:45:14;;;;;;;7.12;4.85;;;;;;;16.26;94.30;100873.52;1697018;84;21008;-81
2021/05/29 03:47:42;;;;;;;6.00;5.03;;;;;;;16.27;94.39;100871.73;1696732;84;21653;-80
2021/05/29 03:50:10;;;;;;;7.50;4.47;;;;;;;16.25;93.87;100873.64;1696528;84;21144;-75
2021/05/29 03:52:37;;;;;;;6.12;4.67;;;;;;;16.28;93.61;100875.99;1696835;84;21610;-77
2021/05/29 03:55:06;;;;;;;6.47;4.35;;;;;;;16.28;93.24;100872.06;1696759;84;21649;-80
2021/05/29 03:57:33;;;;;;;9.33;4.67;;;;;;;16.29;93.22;100869.33;1696870;84;21629;-81
2021/05/29 04:00:00;;;;;;;6.67;5.00;;;;;;;16.30;93.11;100869.69;1697009;84;21803;-75
2021/05/29 04:02:27;;;;;;;8.23;4.72;;;;;;;16.34;92.85;100872.37;1696726;84;21064;-78
2021/05/29 04:04:54;;;;;;;6.70;4.53;;;;;;;16.37;92.76;100872.09;1696634;84;21016;-72
2021/05/29 04:07:23;;;;;;;4.87;4.28;;;;;;;16.42;92.90;100878.27;1697015;84;21183;-72
2021/05/29 04:09:51;;;;;;;6.08;4.72;;;;;;;16.43;92.32;100882.04;1696805;84;21084;-77
2021/05/29 04:12:39;;;;;;;9.03;5.28;;;;;;;16.39;92.08;100877.22;1696916;84;21055;-74
2021/05/29 04:15:09;;;;;;;4.83;4.42;;;;;;;16.35;91.32;100879.75;1696529;84;21383;-77
2021/05/29 04:17:36;;;;;;;7.80;5.10;;;;;;;16.31;91.33;100882.27;1696426;84;21130;-75
2021/05/29 04:20:04;;;;;;;7.53;5.40;;;;;;;16.29;91.65;100878.97;1696868;84;21796;-77
2021/05/29 04:22:31;;;;;;;5.58;5.00;;;;;;;16.29;91.50;100888.14;1697127;84;21104;-81
2021/05/29 04:24:58;;;;;;;9.23;5.15;;;;;;;16.31;91.18;100894.06;1696855;84;21136;-78
2021/05/29 04:27:25;;;;;;;7.65;5.47;;;;;;;16.31;90.38;100892.27;1696928;84;21162;-76
2021/05/29 04:29:54;;;;;;;8.05;5.20;;;;;;;16.30;90.90;100889.80;1697602;84;21012;-76
2021/05/29 04:32:21;;;;;;;5.87;5.28;;;;;;;16.31;90.20;100888.82;1697616;84;21124;-80
2021/05/29 04:34:48;;;;;;;9.53;5.15;;;;;;;16.30;89.99;100893.73;1697571;84;21032;-75
2021/05/29 04:37:16;;;;;;;7.37;5.22;;;;;;;16.27;90.04;100894.00;1697609;84;21093;-75
2021/05/29 04:39:44;;;;;;;7.08;5.53;;;;;;;16.25;90.13;100893.28;1696842;84;21913;-77
2021/05/29 04:42:12;;;;;;;8.40;5.00;;;;;;;16.23;90.61;100883.43;1696663;84;20985;-77
2021/05/29 04:44:39;;;;;;;7.67;4.95;;;;;;;16.22;90.71;100894.37;1696565;84;21079;-79
2021/05/29 04:47:07;;;;;;;7.20;4.60;;;;;;;16.18;89.96;100885.59;1696867;84;21642;-77
2021/05/29 04:49:34;;;;;;;4.40;4.10;;;;;;;16.16;89.98;100894.08;1696732;84;21727;-78
2021/05/29 04:52:02;;;;;;;8.95;4.65;;;;;;;16.15;90.10;100897.17;1696832;84;21096;-81
2021/05/29 04:54:29;;;;;;;5.70;4.22;;;;;;;16.15;89.77;100896.33;1696807;84;21168;-79
2021/05/29 04:56:57;;;;;;;8.48;4.60;;;;;;;16.14;89.86;100897.31;1696836;84;21115;-81
2021/05/29 04:59:24;;;;;;;10.13;4.50;;;;;;;16.14;88.99;100898.15;1696728;84;21746;-80
2021/05/29 05:01:51;;;;;;;9.78;4.42;;;;;;;16.14;89.05;100898.63;1697041;84;21095;-77
2021/05/29 05:04:19;;;;;;;7.90;4.60;;;;;;;16.17;89.34;100892.65;1696883;84;21577;-81
2021/05/29 05:06:46;;;;;;;5.75;3.80;;;;;;;16.18;88.71;100898.22;1696768;84;21084;-77
2021/05/29 05:09:13;;;;;;;6.42;3.90;;;;;;;16.21;88.97;100894.53;1696887;84;21570;-76
2021/05/29 05:11:40;;;;;;;5.78;4.00;;;;;;;16.21;88.73;100899.26;1696897;84;21160;-74
2021/05/29 05:14:07;;;;;;;5.15;3.80;;;;;;;16.22;88.54;100900.09;1696945;84;21100;-78
2021/05/29 05:16:35;;;;;;;5.55;3.60;;;;;;;16.25;88.00;100895.90;1688594;84;21104;-80
2021/05/29 05:19:02;;;;;;;5.97;3.55;;;;;;;16.27;88.37;100892.69;1656974;86;21673;-76
2021/05/29 05:21:31;;;;;;;6.33;3.47;;;;;;;16.32;88.00;100899.66;1657055;86;21061;-76
2021/05/29 05:23:59;;;;;;;5.90;3.25;;;;;;;16.33;88.06;100896.92;1657892;86;21072;-74
2021/05/29 05:26:26;;;;;;;3.62;3.20;;;;;;;16.36;87.50;100905.82;1657302;86;21041;-74
2021/05/29 05:28:53;;;;;;;4.22;3.37;;;;;;;16.38;86.89;100900.44;1656863;86;21160;-76
2021/05/29 05:31:20;;;;;;;5.90;3.30;;;;;;;16.37;86.88;100900.91;1657212;86;21016;-75
2021/05/29 05:33:50;;;;;;;6.55;3.60;;;;;;;16.39;86.79;100904.25;1657118;86;21084;-76
2021/05/29 05:36:17;;;;;;;3.85;2.98;;;;;;;16.40;86.65;100905.88;1657496;86;21165;-75
2021/05/29 05:38:47;;;;;;;7.60;3.02;;;;;;;16.43;86.54;100907.91;1657676;86;21088;-76
2021/05/29 05:41:14;;;;;;;9.28;3.37;;;;;;;16.45;86.26;100903.36;1657316;86;21124;-75
2021/05/29 05:43:40;;;;;;;5.83;2.70;;;;;;;16.50;86.32;100913.77;1656911;86;20997;-72
2021/05/29 05:46:11;;;;;;;7.00;3.30;;;;;;;16.56;85.65;100908.54;1656998;86;21092;-78
2021/05/29 05:48:37;;;;;;;6.00;2.98;;;;;;;16.60;86.18;100909.91;1657260;86;21101;-81
2021/05/29 05:51:04;;;;;;;24.80;3.22;;;;;;;16.67;85.90;100907.10;1657435;86;21329;-77
2021/05/29 05:53:31;;;;;;;8.03;2.62;;;;;;;16.72;85.29;100900.48;1657504;86;20985;-75
2021/05/29 05:56:01;;;;;;;5.75;3.42;;;;;;;16.80;84.92;100903.28;1657505;86;21077;-79
2021/05/29 05:58:30;;;;;;;4.17;2.40;;;;;;;16.85;83.92;100900.23;1657513;86;21750;-77
2021/05/29 06:00:59;;;;;;;6.53;3.10;;;;;;;16.87;83.43;100901.78;1657319;86;21020;-77
2021/05/29 06:03:26;;;;;;;7.55;2.70;;;;;;;16.87;82.62;100905.72;1657081;86;21659;-82
2021/05/29 06:05:53;;;;;;;3.35;2.52;;;;;;;16.85;83.34;100897.14;1657093;86;21136;-77
2021/05/29 06:08:20;;;;;;;6.33;2.70;;;;;;;16.91;83.90;100901.84;1656896;85;21068;-75
2021/05/29 06:10:48;;;;;;;5.42;2.92;;;;;;;16.97;83.03;100900.97;1657331;85;21009;-83
2021/05/29 06:13:27;;;;;;;4.47;2.80;;;;;;;17.02;82.87;100902.20;1657187;86;21555;-80
2021/05/29 06:21:04;;;;;;;3.92;3.15;;;;;;;17.24;81.18;100912.91;1696873;84;21689;-75
2021/05/29 06:23:33;;;;;;;7.40;3.05;;;;;;;17.26;80.60;100908.37;1697373;84;21558;-76
2021/05/29 06:26:00;;;;;;;6.67;3.10;;;;;;;17.32;81.66;100910.44;1697573;84;21080;-75
2021/05/29 06:28:27;;;;;;;2.92;2.58;;;;;;;17.42;80.09;100898.95;1697352;84;21602;-77
2021/05/29 06:30:55;;;;;;;5.78;2.70;;;;;;;17.47;79.72;100898.55;1697714;84;21615;-77
2021/05/29 06:33:22;;;;;;;5.10;2.70;;;;;;;17.55;79.49;100900.01;1696345;84;21652;-76
2021/05/29 06:35:49;;;;;;;4.72;2.40;;;;;;;17.58;79.62;100896.30;1696576;84;21064;-77
2021/05/29 06:38:16;;;;;;;4.05;2.77;;;;;;;17.63;79.48;100908.51;1696951;84;21072;-78
2021/05/29 06:40:43;;;;;;;3.80;2.80;;;;;;;17.71;78.92;100904.20;1696665;84;21114;-80
2021/05/29 06:43:10;;;;;;;6.37;2.85;;;;;;;17.76;78.61;100891.50;1696490;84;21641;-77
2021/05/29 06:45:37;;;;;;;4.87;2.75;;;;;;;17.86;79.03;100894.94;1696411;84;21740;-76
2021/05/29 06:48:07;;;;;;;3.02;2.67;;;;;;;17.96;76.30;100894.39;1696930;84;21051;-78
2021/05/29 06:50:34;;;;;;;4.28;2.92;;;;;;;18.03;76.54;100889.91;1696667;84;21701;-77
2021/05/29 06:53:03;;;;;;;7.55;2.92;;;;;;;18.13;76.01;100895.94;1696630;84;21691;-81
2021/05/29 07:01:00;;;;;;;4.30;3.15;;;;;;;18.54;74.74;100890.75;1696447;84;21674;-76
2021/05/29 07:03:27;;;;;;;8.73;3.50;;;;;;;18.64;72.84;100891.02;1696242;84;21132;-73
2021/05/29 07:05:54;;;;;;;4.28;2.87;;;;;;;18.71;73.22;100891.26;1696936;84;21672;-77
2021/05/29 07:08:21;;;;;;;7.10;3.10;;;;;;;18.81;72.59;100891.55;1697131;84;20925;-75
2021/05/29 07:10:49;;;;;;;5.70;3.08;;;;;;;18.80;72.86;100908.29;1696688;84;21044;-83
2021/05/29 07:13:16;;;;;;;9.73;3.20;;;;;;;18.75;72.74;100897.89;1696992;84;21112;-78
2021/05/29 07:15:43;;;;;;;9.53;2.92;;;;;;;18.77;73.86;100895.92;1696325;84;21103;-76
2021/05/29 07:18:12;;;;;;;5.75;2.75;;;;;;;18.87;71.57;100907.21;1696797;84;21030;-78
2021/05/29 07:20:39;;;;;;;5.25;2.72;;;;;;;18.92;71.28;100903.67;1696918;84;21091;-80
2021/05/29 07:23:06;;;;;;;5.75;2.90;;;;;;;18.96;71.36;100895.80;1696960;84;21052;-78
2021/05/29 07:25:34;;;;;;;7.92;3.83;;;;;;;19.04;71.46;100905.10;1697118;84;21052;-76
2021/05/29 07:28:01;;;;;;;9.28;3.45;;;;;;;19.10;71.67;100902.35;1697721;84;21131;-78
2021/05/29 07:30:30;;;;;;;6.65;3.00;;;;;;;19.14;70.06;100893.19;1697459;84;22140;-80
2021/05/29 07:32:57;;;;;;;3.95;2.98;;;;;;;19.16;69.64;100903.06;1697630;84;21120;-74
2021/05/29 07:35:24;;;;;;;9.15;2.95;;;;;;;19.17;69.31;100906.88;1697980;84;21112;-80
2021/05/29 07:37:51;;;;;;;9.18;3.33;;;;;;;19.16;69.89;100906.52;1697959;84;20977;-79
2021/05/29 07:40:18;;;;;;;10.70;3.22;;;;;;;19.24;70.17;100902.64;1697309;84;21144;-80
2021/05/29 07:42:45;;;;;;;6.85;3.08;;;;;;;19.33;68.85;100904.87;1696979;84;21144;-75
2021/05/29 07:45:13;;;;;;;5.15;3.37;;;;;;;19.39;69.15;100909.05;1696845;84;21666;-74
2021/05/29 07:47:40;;;;;;;6.47;2.80;;;;;;;19.51;67.66;100924.13;1696793;84;21000;-77
2021/05/29 07:50:09;;;;;;;3.70;3.10;;;;;;;19.51;67.07;100914.92;1696577;84;21610;-76
2021/05/29 07:52:36;;;;;;;10.40;3.22;;;;;;;19.51;67.00;100935.48;1697209;84;21645;-77
2021/05/29 07:55:06;;;;;;;8.03;3.45;;;;;;;19.51;67.38;100924.96;1696742;84;21068;-76
2021/05/29 07:57:35;;;;;;;5.12;3.37;;;;;;;19.58;66.76;100933.56;1696940;84;21795;-78
2021/05/29 08:00:04;;;;;;;3.60;3.30;;;;;;;19.58;66.91;100930.93;1696913;84;21131;-77
2021/05/29 08:02:31;;;;;;;7.65;3.70;;;;;;;19.59;67.08;100933.91;1697278;84;20972;-79
2021/05/29 08:04:58;;;;;;;7.33;3.25;;;;;;;19.68;67.36;100939.57;1696744;84;21204;-77
2021/05/29 08:07:26;;;;;;;7.10;3.85;;;;;;;19.82;66.53;100931.09;1696794;84;21822;-78
2021/05/29 08:09:55;;;;;;;5.97;3.95;;;;;;;19.87;66.22;100941.53;1696549;84;21111;-78
2021/05/29 08:12:24;;;;;;;7.70;3.27;;;;;;;20.00;66.54;100931.41;1697189;84;21110;-75
2021/05/29 08:14:52;;;;;;;6.50;3.92;;;;;;;20.15;66.55;100936.09;1698083;84;21583;-75
2021/05/29 08:17:19;;;;;;;5.60;3.50;;;;;;;20.23;65.06;100931.69;1696405;84;20948;-75
2021/05/29 08:19:46;;;;;;;5.55;3.40;;;;;;;20.18;65.01;100941.05;1658525;86;21154;-79
2021/05/29 08:22:14;;;;;;;5.42;3.67;;;;;;;20.14;64.86;100937.89;1658566;86;21080;-78
2021/05/29 08:24:43;;;;;;;3.83;3.47;;;;;;;20.20;65.69;100940.42;1657728;86;21069;-76
2021/05/29 08:27:10;;;;;;;6.37;3.55;;;;;;;20.27;65.16;100944.09;1657584;86;21120;-77
2021/05/29 08:29:36;;;;;;;4.83;3.30;;;;;;;20.23;64.78;100936.95;1657653;86;21019;-81
2021/05/29 08:32:05;;;;;;;5.28;3.70;;;;;;;20.29;64.24;100936.39;1657574;86;21475;-79
2021/05/29 08:34:32;;;;;;;3.50;3.17;;;;;;;20.34;63.62;100939.36;1657415;86;21068;-75
2021/05/29 08:37:01;;;;;;;6.60;3.60;;;;;;;20.35;63.49;100938.87;1657552;86;21617;-79
2021/05/29 08:39:29;;;;;;;5.65;3.00;;;;;;;20.32;63.11;100936.07;1635981;86;21138;-77
2021/05/29 08:41:56;;;;;;;5.37;3.30;;;;;;;20.25;63.86;100940.77;1657518;86;21140;-76
2021/05/29 08:44:23;;;;;;;4.95;3.25;;;;;;;20.16;63.62;100937.27;1657708;86;21747;-77
2021/05/29 08:46:50;;;;;;;7.42;5.05;;;;;;;20.09;64.27;100936.23;1657524;86;21137;-76
2021/05/29 08:49:20;;;;;;;6.42;3.83;;;;;;;20.16;66.03;100932.00;1657514;86;21083;-75
2021/05/29 08:51:47;;;;;;;6.40;3.00;;;;;;;20.43;65.74;100925.72;1657474;85;21116;-78
2021/05/29 08:54:14;;;;;;;4.45;2.87;;;;;;;20.53;63.69;100935.66;1658072;86;21590;-80
2021/05/29 08:56:42;;;;;;;5.67;3.10;;;;;;;20.55;64.32;100921.33;1657292;86;21659;-77
2021/05/29 08:59:11;;;;;;;3.22;2.92;;;;;;;20.76;63.38;100918.27;1656931;86;22625;-77
2021/05/29 09:05:57;;;;;;;2.85;2.33;;;;;;;20.96;62.41;100922.27;1657423;86;21080;-74
2021/05/29 09:16:43;;;;;;;7.20;2.55;;;;;;;21.18;62.73;100897.61;1657559;86;21594;-80
2021/05/29 09:19:11;;;;;;;6.08;2.20;;;;;;;21.43;61.25;100905.38;1635627;86;33408;-79
2021/05/29 09:21:38;;;;;;;12.45;2.75;;;;;;;21.46;60.19;100898.93;1657157;86;21102;-77
2021/05/29 09:24:14;;;;;;;8.23;2.33;;;;;;;21.54;59.92;100895.78;1634514;86;21108;-74
2021/05/29 09:26:53;;;;;;;4.78;2.47;;;;;;;21.64;58.59;100901.72;1657542;86;21077;-78
2021/05/29 09:29:28;;;;;;;5.22;2.90;;;;;;;21.48;59.55;100905.69;1657302;86;21033;-81
2021/05/29 09:32:07;;;;;;;9.53;2.30;;;;;;;21.43;58.95;100904.55;1658022;86;20968;-74
2021/05/29 09:34:47;;;;;;;4.80;2.87;;;;;;;21.50;60.15;100915.61;1657715;86;21005;-80
2021/05/29 09:37:23;;;;;;;3.52;2.35;;;;;;;21.50;59.32;100917.42;1657550;86;21064;-78
2021/05/29 09:39:56;;;;;;;9.40;2.72;;;;;;;21.48;59.33;100914.10;1657209;86;21078;-78
2021/05/29 09:42:39;;;;;;;3.42;2.85;;;;;;;21.55;59.82;100908.50;1657577;86;21080;-83
2021/05/29 09:45:25;;;;;;;3.35;2.50;;;;;;;21.80;59.16;100907.47;1657135;86;21781;-81
2021/05/29 09:48:16;;;;;;;3.62;2.27;;;;;;;22.00;58.49;100906.16;1657342;86;21048;-77
2021/05/29 09:51:12;;;;;;;4.13;2.23;;;;;;;21.96;56.74;100911.94;1657321;86;21621;-81
2021/05/29 09:53:46;;;;;;;3.62;2.30;;;;;;;21.79;57.88;100917.73;1657784;86;21134;-76
2021/05/29 09:56:40;;;;;;;1.98;1.82;;;;;;;21.72;57.92;100923.84;1657097;86;21107;-76
2021/05/29 09:59:15;;;;;;;2.72;2.33;;;;;;;21.79;57.29;100915.59;1657159;86;21717;-78
2021/05/29 10:01:53;;;;;;;4.20;2.30;;;;;;;21.87;57.31;100915.56;1657537;86;21041;-79
2021/05/29 10:04:37;;;;;;;3.12;2.08;;;;;;;22.05;57.97;100918.84;1657605;86;21678;-78
2021/05/29 10:07:12;;;;;;;5.28;2.30;;;;;;;22.26;56.36;100919.13;1657026;86;21087;-77
2021/05/29 10:09:41;;;;;;;3.90;2.08;;;;;;;22.29;56.09;100910.86;1657903;86;21045;-78
2021/05/29 10:12:09;;;;;;;2.37;2.10;;;;;;;22.04;56.77;100903.52;1658215;86;21040;-79
2021/05/29 10:14:37;;;;;;;3.55;1.98;;;;;;;21.87;57.22;100910.27;1658571;86;21148;-76
2021/05/29 10:17:11;;;;;;;4.25;2.65;;;;;;;21.74;57.73;100916.56;1658994;86;21105;-80
2021/05/29 10:19:42;;;;;;;3.67;2.00;;;;;;;21.67;58.74;100915.58;1669357;84;21127;-81
2021/05/29 10:22:12;;;;;;;3.60;2.17;;;;;;;21.62;59.24;100916.92;1674647;85;20957;-73
2021/05/29 10:24:40;;;;;;;6.00;2.33;;;;;;;21.66;59.48;100919.23;1674555;85;21023;-76
2021/05/29 10:27:12;;;;;;;4.20;2.52;;;;;;;21.80;59.74;100918.53;1674529;85;21168;-79
2021/05/29 10:29:39;;;;;;;4.15;2.20;;;;;;;21.92;59.39;100910.64;1674264;85;21024;-83
2021/05/29 10:32:13;;;;;;;5.15;2.30;;;;;;;22.03;57.70;100909.78;1674354;85;21175;-80
2021/05/29 10:34:56;;;;;;;3.87;2.27;;;;;;;22.10;57.82;100896.72;1674408;85;21641;-78
2021/05/29 10:37:40;;;;;;;4.95;2.45;;;;;;;22.23;58.94;100897.50;1674223;85;21123;-77
2021/05/29 10:40:28;;;;;;;6.03;2.27;;;;;;;22.39;57.60;100893.47;1674399;85;21083;-75
2021/05/29 10:43:20;;;;;;;4.42;2.45;;;;;;;22.53;57.07;100894.87;1674204;85;21107;-80
2021/05/29 10:45:56;;;;;;;3.50;1.90;;;;;;;22.67;56.23;100894.69;1673211;85;21706;-76
2021/05/29 10:48:25;;;;;;;9.20;2.05;;;;;;;22.64;55.46;100902.44;1674455;85;21090;-79
2021/05/29 10:53:45;;;;;;;6.65;2.77;;;;;;;22.76;56.18;100893.64;1674353;84;21008;-83
2021/05/29 10:56:26;;;;;;;6.00;2.10;;;;;;;22.86;55.96;100897.38;1674169;85;21032;-79
2021/05/29 10:59:12;;;;;;;7.75;2.20;;;;;;;22.97;55.25;100895.67;1674236;85;21095;-75
2021/05/29 11:01:45;;;;;;;5.28;2.20;;;;;;;23.08;54.67;100888.63;1674604;85;21173;-80
2021/05/29 11:04:23;;;;;;;5.08;2.45;;;;;;;22.87;54.34;100893.75;1674728;85;21016;-76
2021/05/29 11:07:03;;;;;;;4.42;1.87;;;;;;;22.70;56.80;100901.44;1674546;85;21019;-76
2021/05/29 11:09:47;;;;;;;10.95;2.75;;;;;;;22.78;56.57;100894.80;1670141;85;21064;-83
2021/05/29 11:12:13;;;;;;;6.17;1.92;;;;;;;22.97;55.55;100899.64;1675064;85;21087;-78
2021/05/29 11:14:52;;;;;;;2.90;1.77;;;;;;;23.03;52.29;100901.59;1674557;85;21065;-77
2021/05/29 11:17:24;;;;;;;2.45;2.25;;;;;;;22.93;52.90;100896.52;1674716;85;20988;-80
2021/05/29 11:20:07;;;;;;;4.33;1.87;;;;;;;22.97;53.33;100897.00;1664175;85;21410;-79
2021/05/29 11:22:46;;;;;;;2.45;1.75;;;;;;;23.07;53.64;100893.09;1657448;85;21104;-77
2021/05/29 11:25:17;;;;;;;2.65;1.82;;;;;;;23.06;52.97;100897.27;1657436;86;21681;-75
2021/05/29 11:27:45;;;;;;;1.82;1.72;;;;;;;22.82;54.17;100896.08;1656597;86;21801;-77
2021/05/29 11:30:21;;;;;;;2.37;2.10;;;;;;;22.71;55.01;100893.84;1657632;86;21064;-78
2021/05/29 11:35:32;;;;;;;3.17;1.92;;;;;;;23.20;52.41;100882.75;1657637;86;21020;-75
2021/05/29 11:38:25;;;;;;;2.87;2.10;;;;;;;23.11;52.98;100889.59;1657554;86;21092;-77
2021/05/29 11:41:08;;;;;;;1.92;1.72;;;;;;;23.11;52.83;100883.81;1657353;86;21080;-78
2021/05/29 11:43:45;;;;;;;2.47;1.70;;;;;;;23.30;53.03;100889.62;1657432;86;21171;-75
2021/05/29 11:46:15;;;;;;;4.40;2.00;;;;;;;23.26;52.38;100886.53;1657402;86;21161;-73
2021/05/29 11:48:45;;;;;;;4.05;1.70;;;;;;;23.19;52.03;100892.20;1657435;86;21013;-73
2021/05/29 11:51:18;;;;;;;3.02;2.35;;;;;;;23.23;52.62;100886.06;1657310;86;21104;-74
2021/05/29 11:54:08;;;;;;;3.15;2.33;;;;;;;23.27;53.19;100889.48;1657714;86;21606;-75
2021/05/29 11:56:38;;;;;;;2.85;1.82;;;;;;;23.25;52.26;100892.81;1657344;86;21638;-73
2021/05/29 11:59:09;;;;;;;2.08;1.70;;;;;;;23.11;53.38;100887.78;1657430;86;21061;-80
2021/05/29 12:01:38;;;;;;;4.12;1.90;;;;;;;23.19;54.02;100887.73;1657614;86;21041;-78
2021/05/29 12:04:07;;;;;;;2.20;2.00;;;;;;;23.34;53.20;100885.63;1657526;86;22369;-77
2021/05/29 12:06:44;;;;;;;4.80;1.80;;;;;;;23.56;52.26;100892.24;1657528;86;21069;-74